Time;durP1;ratioP1;P1;durP2;ratioP2;P2;SDS_P1;SDS_P2;PMS_P1;PMS_P2;Temp;Humidity;BMP_temperature;BMP_pressure;BME280_temperature;BME280_humidity;BME280_pressure;Samples;Min_cycle;Max_cycle;Signal;HPM_P1;HPM_P2
2022/08/06 00:02:28;;;;;;;;;;;14.40;65.70;;;;;;5088636;28;19918;-81
2022/08/06 00:04:53;;;;;;;;;;;14.40;65.70;;;;;;5088363;28;19919;-80
2022/08/06 00:07:19;;;;;;;;;;;14.30;65.70;;;;;;5088350;28;19909;-81
2022/08/06 00:09:45;;;;;;;;;;;14.30;66.30;;;;;;5087169;28;19909;-82
2022/08/06 00:12:10;;;;;;;;;;;14.20;65.80;;;;;;5070326;28;20387;-81
2022/08/06 00:14:36;;;;;;;;;;;14.20;65.80;;;;;;5088441;28;19919;-81
2022/08/06 00:17:02;;;;;;;;;;;14.20;65.70;;;;;;5070045;28;19985;-81
2022/08/06 00:19:27;;;;;;;;;;;14.20;65.70;;;;;;5087043;28;19950;-81
2022/08/06 00:21:53;;;;;;;;;;;14.20;65.70;;;;;;5086817;28;19919;-83
2022/08/06 00:24:19;;;;;;;;;;;14.20;65.60;;;;;;5086654;28;20336;-81
2022/08/06 00:26:45;;;;;;;;;;;14.10;65.60;;;;;;5088419;28;19998;-81
2022/08/06 00:29:11;;;;;;;;;;;14.10;65.60;;;;;;5088265;28;19977;-81
2022/08/06 00:31:37;;;;;;;;;;;14.10;65.70;;;;;;5088206;28;19908;-81
2022/08/06 00:34:03;;;;;;;;;;;14.10;65.70;;;;;;5086798;28;19938;-81
2022/08/06 00:36:30;;;;;;;;;;;14.00;65.70;;;;;;5086895;28;19948;-81
2022/08/06 00:38:59;;;;;;;;;;;14.00;65.70;;;;;;5087882;28;19934;-80
2022/08/06 00:41:25;;;;;;;;;;;14.00;65.70;;;;;;5086879;28;19916;-81
2022/08/06 00:43:50;;;;;;;;;;;14.00;65.70;;;;;;5086496;28;19957;-81
2022/08/06 00:46:16;;;;;;;;;;;13.90;65.60;;;;;;5086817;28;19961;-81
2022/08/06 00:48:42;;;;;;;;;;;13.90;65.70;;;;;;5087989;28;19916;-81
2022/08/06 00:51:08;;;;;;;;;;;13.90;65.80;;;;;;5070076;28;19986;-81
2022/08/06 00:53:36;;;;;;;;;;;13.90;65.80;;;;;;5091068;28;19912;-81
2022/08/06 00:56:03;;;;;;;;;;;13.80;65.80;;;;;;5090806;28;19916;-81
2022/08/06 00:58:28;;;;;;;;;;;13.90;65.70;;;;;;5090852;28;19915;-81
2022/08/06 01:00:54;;;;;;;;;;;13.80;65.70;;;;;;5073721;28;20354;-81
2022/08/06 01:03:19;;;;;;;;;;;13.80;65.70;;;;;;5090647;28;20003;-81
2022/08/06 01:05:45;;;;;;;;;;;13.70;65.70;;;;;;5090495;28;19916;-81
2022/08/06 01:08:11;;;;;;;;;;;13.70;65.70;;;;;;5090721;28;19919;-81
2022/08/06 01:10:37;;;;;;;;;;;13.60;65.70;;;;;;5090484;28;20376;-81
2022/08/06 01:13:02;;;;;;;;;;;13.60;65.70;;;;;;5090432;28;19969;-80
2022/08/06 01:15:28;;;;;;;;;;;13.60;65.80;;;;;;5091567;28;19912;-81
2022/08/06 01:18:04;;;;;;;;;;;13.50;65.80;;;;;;5090492;28;20364;-81
2022/08/06 01:20:39;;;;;;;;;;;13.50;65.80;;;;;;5090376;28;19915;-81
2022/08/06 01:23:21;;;;;;;;;;;13.50;65.80;;;;;;5091771;28;19909;-81
2022/08/06 01:26:04;;;;;;;;;;;13.50;65.80;;;;;;5090089;28;19923;-83
2022/08/06 01:28:33;;;;;;;;;;;13.50;65.80;;;;;;5091407;28;19908;-81
2022/08/06 01:31:05;;;;;;;;;;;13.60;65.80;;;;;;5089963;28;20322;-81
2022/08/06 01:33:33;;;;;;;;;;;13.60;65.70;;;;;;5089949;28;19916;-81
2022/08/06 01:36:04;;;;;;;;;;;13.60;65.70;;;;;;5090055;28;20443;-81
2022/08/06 01:38:29;;;;;;;;;;;13.60;65.50;;;;;;5089894;28;20372;-81
2022/08/06 01:40:57;;;;;;;;;;;13.60;65.50;;;;;;5090181;28;19927;-81
2022/08/06 01:43:24;;;;;;;;;;;13.60;65.40;;;;;;5091264;28;19912;-81
2022/08/06 01:45:52;;;;;;;;;;;13.60;65.40;;;;;;5089868;28;19919;-81
2022/08/06 01:48:21;;;;;;;;;;;13.60;65.50;;;;;;5091207;28;19977;-81
2022/08/06 01:50:48;;;;;;;;;;;13.50;65.50;;;;;;5089786;28;20386;-81
2022/08/06 01:53:15;;;;;;;;;;;13.50;65.40;;;;;;5091105;28;20382;-81
2022/08/06 01:55:43;;;;;;;;;;;13.50;65.40;;;;;;5091145;28;19912;-81
2022/08/06 01:58:09;;;;;;;;;;;13.40;65.30;;;;;;5089895;28;19915;-81
2022/08/06 02:00:37;;;;;;;;;;;13.40;65.30;;;;;;5091095;28;19916;-81
2022/08/06 02:03:05;;;;;;;;;;;13.40;65.30;;;;;;5088823;28;19911;-81
2022/08/06 02:05:31;;;;;;;;;;;13.30;65.20;;;;;;5089561;28;19916;-81
2022/08/06 02:07:57;;;;;;;;;;;13.30;65.30;;;;;;5072686;28;20015;-81
2022/08/06 02:10:24;;;;;;;;;;;13.30;65.40;;;;;;5072704;28;19912;-81
2022/08/06 02:12:50;;;;;;;;;;;13.30;65.40;;;;;;5090926;28;19908;-81
2022/08/06 02:15:35;;;;;;;;;;;13.20;65.30;;;;;;5072600;28;20252;-81
2022/08/06 02:18:03;;;;;;;;;;;13.20;65.30;;;;;;5090761;28;19951;-81
2022/08/06 02:20:32;;;;;;;;;;;13.20;65.30;;;;;;5089222;28;20015;-81
2022/08/06 02:22:59;;;;;;;;;;;13.20;65.30;;;;;;5089221;28;19908;-81
2022/08/06 02:25:25;;;;;;;;;;;13.30;65.40;;;;;;5089160;28;20264;-81
2022/08/06 02:27:52;;;;;;;;;;;13.30;65.30;;;;;;5089146;28;19923;-81
2022/08/06 02:30:18;;;;;;;;;;;13.30;65.30;;;;;;5089951;28;20053;-82
2022/08/06 02:32:44;;;;;;;;;;;13.30;65.30;;;;;;5072194;28;19960;-81
2022/08/06 02:35:10;;;;;;;;;;;13.30;65.30;;;;;;5090462;28;19915;-81
2022/08/06 02:37:43;;;;;;;;;;;13.20;65.30;;;;;;5089136;28;19997;-81
2022/08/06 02:40:11;;;;;;;;;;;13.20;65.30;;;;;;5088925;28;20557;-81
2022/08/06 02:42:45;;;;;;;;;;;13.10;65.30;;;;;;5090253;28;20316;-81
2022/08/06 02:45:29;;;;;;;;;;;13.10;65.40;;;;;;5090132;28;19916;-81
2022/08/06 02:47:55;;;;;;;;;;;13.10;65.50;;;;;;5090031;28;19954;-81
2022/08/06 02:50:24;;;;;;;;;;;13.10;65.40;;;;;;5088812;28;19955;-81
2022/08/06 02:52:54;;;;;;;;;;;13.10;65.40;;;;;;5090035;28;19923;-81
2022/08/06 02:55:22;;;;;;;;;;;13.10;65.40;;;;;;5088649;28;19908;-81
2022/08/06 02:58:01;;;;;;;;;;;13.00;65.40;;;;;;5090244;28;19915;-81
2022/08/06 03:00:27;;;;;;;;;;;13.10;65.40;;;;;;5089826;28;19919;-81
2022/08/06 03:02:55;;;;;;;;;;;13.00;65.40;;;;;;5090485;28;19908;-81
2022/08/06 03:05:22;;;;;;;;;;;13.10;65.40;;;;;;5088577;28;19938;-81
2022/08/06 03:07:48;;;;;;;;;;;13.00;65.70;;;;;;5088656;28;19919;-81
2022/08/06 03:10:17;;;;;;;;;;;13.00;65.40;;;;;;5089775;28;19908;-81
2022/08/06 03:12:43;;;;;;;;;;;13.00;65.50;;;;;;5088412;28;19919;-81
2022/08/06 03:15:10;;;;;;;;;;;13.00;65.50;;;;;;5087358;28;19912;-81
2022/08/06 03:17:37;;;;;;;;;;;13.00;65.50;;;;;;5071402;28;19912;-81
2022/08/06 03:20:04;;;;;;;;;;;13.00;65.50;;;;;;5088004;28;19908;-81
2022/08/06 03:22:30;;;;;;;;;;;13.00;65.50;;;;;;5088235;28;19912;-81
2022/08/06 03:24:57;;;;;;;;;;;13.00;65.50;;;;;;5089282;28;20069;-82
2022/08/06 03:27:23;;;;;;;;;;;13.00;65.50;;;;;;5088018;28;20400;-81
2022/08/06 03:29:49;;;;;;;;;;;13.00;65.40;;;;;;5089485;28;20007;-81
2022/08/06 03:32:15;;;;;;;;;;;13.00;65.40;;;;;;5088207;28;19917;-81
2022/08/06 03:34:42;;;;;;;;;;;13.00;65.40;;;;;;5089225;28;19935;-81
2022/08/06 03:37:08;;;;;;;;;;;12.90;65.30;;;;;;5089194;28;20288;-81
2022/08/06 03:39:36;;;;;;;;;;;12.90;65.30;;;;;;5088740;28;19927;-81
2022/08/06 03:42:01;;;;;;;;;;;12.90;65.30;;;;;;5089018;28;19958;-81
2022/08/06 03:44:27;;;;;;;;;;;12.80;65.30;;;;;;5087774;28;19924;-81
2022/08/06 03:46:56;;;;;;;;;;;12.80;65.40;;;;;;5087711;28;19919;-81
2022/08/06 03:49:27;;;;;;;;;;;12.80;65.40;;;;;;5088973;28;19912;-81
2022/08/06 03:51:54;;;;;;;;;;;12.70;65.30;;;;;;5087627;28;19943;-81
2022/08/06 03:54:28;;;;;;;;;;;12.80;65.40;;;;;;5087545;28;19930;-81
2022/08/06 03:56:55;;;;;;;;;;;12.70;65.30;;;;;;5087628;28;19908;-81
2022/08/06 03:59:21;;;;;;;;;;;12.70;65.30;;;;;;5087820;28;19943;-81
2022/08/06 04:01:48;;;;;;;;;;;12.70;65.30;;;;;;5087424;28;20016;-81
2022/08/06 04:04:14;;;;;;;;;;;12.70;65.30;;;;;;5088457;28;19909;-81
2022/08/06 04:06:41;;;;;;;;;;;12.60;65.30;;;;;;5089076;28;19912;-81
2022/08/06 04:09:07;;;;;;;;;;;12.60;65.30;;;;;;5088507;28;19912;-81
2022/08/06 04:11:33;;;;;;;;;;;12.60;65.30;;;;;;5070318;28;19916;-81
2022/08/06 04:13:59;;;;;;;;;;;12.50;65.30;;;;;;5088526;28;19915;-81
2022/08/06 04:16:25;;;;;;;;;;;12.50;65.30;;;;;;5087226;28;19965;-81
2022/08/06 04:18:55;;;;;;;;;;;12.50;65.30;;;;;;5070378;28;19932;-81
2022/08/06 04:21:22;;;;;;;;;;;12.50;65.30;;;;;;5087096;28;20329;-80
2022/08/06 04:23:48;;;;;;;;;;;12.40;65.20;;;;;;5087138;28;19916;-81
2022/08/06 04:26:15;;;;;;;;;;;12.30;65.20;;;;;;5086966;28;19917;-81
2022/08/06 04:28:42;;;;;;;;;;;12.30;65.30;;;;;;5088491;28;19908;-81
2022/08/06 04:31:09;;;;;;;;;;;12.20;65.30;;;;;;5086912;28;19908;-81
2022/08/06 04:33:35;;;;;;;;;;;12.20;65.30;;;;;;5087024;28;19964;-81
2022/08/06 04:36:05;;;;;;;;;;;12.10;65.20;;;;;;5070081;28;19920;-81
2022/08/06 04:38:31;;;;;;;;;;;12.10;65.30;;;;;;5086803;28;19912;-81
2022/08/06 04:40:56;;;;;;;;;;;12.00;65.30;;;;;;5086916;28;19937;-81
2022/08/06 04:43:22;;;;;;;;;;;12.00;65.30;;;;;;5086811;28;19920;-81
2022/08/06 04:45:48;;;;;;;;;;;12.00;65.30;;;;;;5088160;28;19922;-81
2022/08/06 04:48:15;;;;;;;;;;;11.90;65.30;;;;;;5087069;28;19912;-81
2022/08/06 04:50:40;;;;;;;;;;;11.90;65.30;;;;;;5086472;28;19912;-81
2022/08/06 04:53:09;;;;;;;;;;;11.90;65.40;;;;;;5086592;28;20253;-81
2022/08/06 04:55:35;;;;;;;;;;;11.90;65.30;;;;;;5086640;28;19912;-81
2022/08/06 04:58:02;;;;;;;;;;;11.90;65.30;;;;;;5086863;28;19931;-81
2022/08/06 05:00:27;;;;;;;;;;;11.90;65.30;;;;;;5086586;28;20437;-81
2022/08/06 05:02:53;;;;;;;;;;;11.90;65.30;;;;;;5086523;28;19999;-81
2022/08/06 05:05:20;;;;;;;;;;;12.00;65.40;;;;;;5069752;28;19928;-81
2022/08/06 05:07:46;;;;;;;;;;;12.00;65.40;;;;;;5086578;28;19986;-81
2022/08/06 05:10:12;;;;;;;;;;;12.00;65.30;;;;;;5086766;28;19920;-81
2022/08/06 05:12:38;;;;;;;;;;;12.10;65.40;;;;;;5086432;28;20008;-81
2022/08/06 05:15:04;;;;;;;;;;;12.10;65.30;;;;;;5087844;28;20345;-81
2022/08/06 05:17:32;;;;;;;;;;;12.10;65.30;;;;;;5087882;28;19915;-81
2022/08/06 05:20:18;;;;;;;;;;;12.20;65.30;;;;;;5086756;28;20240;-81
2022/08/06 05:22:44;;;;;;;;;;;12.20;65.30;;;;;;5087535;28;19912;-80
2022/08/06 05:25:10;;;;;;;;;;;12.30;65.30;;;;;;5086659;28;19918;-81
2022/08/06 05:27:36;;;;;;;;;;;12.30;65.30;;;;;;5087759;28;19999;-81
2022/08/06 05:30:03;;;;;;;;;;;12.40;65.30;;;;;;5069468;28;19999;-66
2022/08/06 05:32:28;;;;;;;;;;;12.50;65.40;;;;;;5087750;28;19987;-81
2022/08/06 05:34:54;;;;;;;;;;;12.50;65.30;;;;;;5086384;28;19999;-81
2022/08/06 05:37:19;;;;;;;;;;;12.70;65.40;;;;;;5069632;28;19912;-81
2022/08/06 05:39:45;;;;;;;;;;;12.80;65.30;;;;;;5089887;28;19956;-81
2022/08/06 05:42:11;;;;;;;;;;;12.90;65.30;;;;;;5091395;28;19935;-81
2022/08/06 05:44:37;;;;;;;;;;;13.10;65.20;;;;;;5091482;28;19920;-81
2022/08/06 05:47:05;;;;;;;;;;;13.20;65.20;;;;;;5073164;28;20354;-81
2022/08/06 05:49:38;;;;;;;;;;;13.30;65.10;;;;;;5089911;28;20011;-80
2022/08/06 05:52:07;;;;;;;;;;;13.30;65.10;;;;;;5091418;28;19908;-81
2022/08/06 05:54:40;;;;;;;;;;;13.30;65.00;;;;;;5089860;28;19908;-81
2022/08/06 05:57:13;;;;;;;;;;;13.30;65.00;;;;;;5091323;28;19964;-81
2022/08/06 05:59:41;;;;;;;;;;;13.30;65.00;;;;;;5091106;28;20061;-82
2022/08/06 06:02:08;;;;;;;;;;;13.30;65.00;;;;;;5089958;28;20003;-81
2022/08/06 06:04:34;;;;;;;;;;;13.30;65.10;;;;;;5089734;28;20292;-81
2022/08/06 06:07:00;;;;;;;;;;;13.20;65.10;;;;;;5089698;28;19912;-81
2022/08/06 06:09:26;;;;;;;;;;;13.30;65.10;;;;;;5089482;28;20245;-81
2022/08/06 06:11:52;;;;;;;;;;;13.30;65.10;;;;;;5089448;28;19999;-81
2022/08/06 06:14:17;;;;;;;;;;;13.30;65.10;;;;;;5089546;28;20058;-81
2022/08/06 06:16:58;;;;;;;;;;;13.40;65.20;;;;;;5090693;28;20280;-81
2022/08/06 06:19:43;;;;;;;;;;;13.40;65.10;;;;;;5089468;28;19931;-81
2022/08/06 06:22:12;;;;;;;;;;;13.50;65.10;;;;;;5090009;28;20007;-81
2022/08/06 06:24:43;;;;;;;;;;;13.50;65.10;;;;;;5090483;28;19943;-81
2022/08/06 06:27:17;;;;;;;;;;;13.60;65.20;;;;;;5089188;28;19950;-81
2022/08/06 06:29:51;;;;;;;;;;;13.70;65.00;;;;;;5089021;28;19908;-81
2022/08/06 06:32:21;;;;;;;;;;;13.80;65.00;;;;;;5089233;28;19908;-81
2022/08/06 06:35:13;;;;;;;;;;;14.00;65.30;;;;;;5090402;28;19957;-81
2022/08/06 06:37:42;;;;;;;;;;;14.50;65.80;;;;;;5065365;28;20406;-81
2022/08/06 06:40:16;;;;;;;;;;;15.60;65.50;;;;;;5090285;28;19931;-81
2022/08/06 06:42:54;;;;;;;;;;;17.00;64.40;;;;;;5088818;28;20007;-82
2022/08/06 06:45:24;;;;;;;;;;;18.00;62.20;;;;;;5088655;28;19912;-83
2022/08/06 06:47:56;;;;;;;;;;;17.80;61.30;;;;;;5088790;28;19912;-80
2022/08/06 06:50:25;;;;;;;;;;;17.30;61.80;;;;;;5088562;28;19912;-81
2022/08/06 06:52:51;;;;;;;;;;;16.70;62.50;;;;;;5088770;28;20384;-81
2022/08/06 06:55:37;;;;;;;;;;;16.20;63.20;;;;;;5088607;28;19958;-81
2022/08/06 06:58:08;;;;;;;;;;;15.80;63.70;;;;;;5089302;28;20272;-81
2022/08/06 07:00:34;;;;;;;;;;;15.50;64.20;;;;;;5090027;28;19916;-82
2022/08/06 07:03:01;;;;;;;;;;;15.30;64.60;;;;;;5090112;28;19915;-81
2022/08/06 07:05:28;;;;;;;;;;;15.20;64.90;;;;;;5088485;28;19916;-81
2022/08/06 07:07:55;;;;;;;;;;;15.10;65.10;;;;;;5090620;28;20034;-81
2022/08/06 07:10:22;;;;;;;;;;;15.10;65.20;;;;;;5089889;28;20004;-81
2022/08/06 07:12:48;;;;;;;;;;;15.10;65.30;;;;;;5071856;28;20399;-80
2022/08/06 07:15:15;;;;;;;;;;;15.20;65.50;;;;;;5088409;28;20361;-81
2022/08/06 07:17:41;;;;;;;;;;;15.30;65.60;;;;;;5088243;28;20372;-81
2022/08/06 07:20:08;;;;;;;;;;;15.40;65.70;;;;;;5088344;28;19919;-81
2022/08/06 07:22:35;;;;;;;;;;;15.70;65.90;;;;;;5088100;28;19915;-81
2022/08/06 07:25:02;;;;;;;;;;;16.00;65.80;;;;;;5087709;28;19919;-80
2022/08/06 07:27:33;;;;;;;;;;;16.80;66.90;;;;;;5089358;28;19920;-81
2022/08/06 07:29:59;;;;;;;;;;;18.40;66.30;;;;;;5089528;28;19912;-81
2022/08/06 07:32:25;;;;;;;;;;;20.00;64.60;;;;;;5071002;28;19912;-81
2022/08/06 07:34:50;;;;;;;;;;;20.60;62.80;;;;;;5087620;28;20240;-81
2022/08/06 07:37:18;;;;;;;;;;;20.50;62.40;;;;;;5088926;28;19912;-81
2022/08/06 07:39:44;;;;;;;;;;;20.60;63.30;;;;;;5088554;28;19920;-82
2022/08/06 07:42:12;;;;;;;;;;;21.30;64.10;;;;;;5089287;28;19912;-81
2022/08/06 07:44:39;;;;;;;;;;;22.60;64.10;;;;;;5088701;28;19916;-81
2022/08/06 07:47:07;;;;;;;;;;;24.00;63.70;;;;;;5087982;28;20142;-81
2022/08/06 07:49:38;;;;;;;;;;;25.30;62.90;;;;;;5088699;28;19908;-81
2022/08/06 07:52:05;;;;;;;;;;;26.00;62.10;;;;;;5088659;28;19912;-80
2022/08/06 07:54:31;;;;;;;;;;;26.40;61.90;;;;;;5087471;28;19919;-80
2022/08/06 07:56:57;;;;;;;;;;;26.90;62.10;;;;;;5069912;28;19912;-80
2022/08/06 07:59:24;;;;;;;;;;;27.30;62.30;;;;;;5086799;28;19962;-81
2022/08/06 08:01:50;;;;;;;;;;;27.80;62.50;;;;;;5086631;28;20271;-80
2022/08/06 08:07:02;;;;;;;;;;;28.20;62.20;;;;;;5086897;28;19918;-81
2022/08/06 08:09:28;;;;;;;;;;;28.30;62.30;;;;;;5087637;28;19915;-81
2022/08/06 08:11:54;;;;;;;;;;;28.40;62.70;;;;;;5088118;28;19916;-82
2022/08/06 08:14:20;;;;;;;;;;;28.60;62.80;;;;;;5086665;28;20004;-81
2022/08/06 08:16:46;;;;;;;;;;;28.70;62.70;;;;;;5087067;28;19978;-81
2022/08/06 08:19:33;;;;;;;;;;;28.40;62.50;;;;;;5088016;28;20341;-80
2022/08/06 08:22:00;;;;;;;;;;;28.30;63.10;;;;;;5086782;28;19912;-81
2022/08/06 08:24:28;;;;;;;;;;;28.40;63.40;;;;;;5087902;28;19912;-81
2022/08/06 08:26:54;;;;;;;;;;;28.50;63.40;;;;;;5088008;28;19915;-80
2022/08/06 08:29:20;;;;;;;;;;;28.60;63.40;;;;;;5086679;28;19914;-80
2022/08/06 08:31:46;;;;;;;;;;;28.90;63.60;;;;;;5087989;28;19953;-81
2022/08/06 08:34:12;;;;;;;;;;;29.00;63.40;;;;;;5086644;28;20368;-81
2022/08/06 08:36:38;;;;;;;;;;;28.90;63.20;;;;;;5088078;28;19923;-80
2022/08/06 08:39:04;;;;;;;;;;;28.80;63.40;;;;;;5086230;28;20381;-81
2022/08/06 08:41:35;;;;;;;;;;;28.80;63.70;;;;;;5086509;28;19957;-82
2022/08/06 08:44:02;;;;;;;;;;;29.00;64.00;;;;;;5088161;28;20007;-81
2022/08/06 08:46:29;;;;;;;;;;;29.10;64.10;;;;;;5086185;28;19913;-81
2022/08/06 08:48:55;;;;;;;;;;;29.20;64.20;;;;;;5086456;28;19912;-81
2022/08/06 08:51:22;;;;;;;;;;;29.40;64.20;;;;;;5086376;28;19916;-81
2022/08/06 08:53:52;;;;;;;;;;;29.40;64.10;;;;;;5086185;28;19916;-80
2022/08/06 08:56:18;;;;;;;;;;;29.60;64.30;;;;;;5086504;28;20008;-81
2022/08/06 08:58:44;;;;;;;;;;;29.90;64.60;;;;;;5086166;28;19970;-80
2022/08/06 09:01:10;;;;;;;;;;;30.30;64.70;;;;;;5088082;28;20217;-81
2022/08/06 09:03:36;;;;;;;;;;;30.50;64.70;;;;;;5086115;28;19999;-80
2022/08/06 09:06:02;;;;;;;;;;;30.60;64.70;;;;;;5086404;28;19916;-80
2022/08/06 09:08:29;;;;;;;;;;;30.80;64.90;;;;;;5086297;28;19908;-81
2022/08/06 09:10:54;;;;;;;;;;;31.00;64.70;;;;;;5087431;28;19958;-81
2022/08/06 09:13:20;;;;;;;;;;;31.20;64.80;;;;;;5071145;28;19951;-81
2022/08/06 09:15:45;;;;;;;;;;;31.40;64.80;;;;;;5089907;28;19927;-80
2022/08/06 09:18:11;;;;;;;;;;;31.50;64.70;;;;;;5089361;28;19916;-80
2022/08/06 09:20:37;;;;;;;;;;;31.80;65.00;;;;;;5089938;28;19919;-80
2022/08/06 09:23:03;;;;;;;;;;;32.00;64.90;;;;;;5091345;28;19912;-81
2022/08/06 09:25:34;;;;;;;;;;;32.10;64.90;;;;;;5089490;28;19954;-81
2022/08/06 09:28:00;;;;;;;;;;;32.30;65.00;;;;;;5089670;28;19973;-81
2022/08/06 09:30:26;;;;;;;;;;;32.60;65.40;;;;;;5090673;28;20360;-81
2022/08/06 09:32:55;;;;;;;;;;;32.70;65.20;;;;;;5089385;28;19943;-81
2022/08/06 09:35:24;;;;;;;;;;;32.80;65.40;;;;;;5090441;28;19995;-80
2022/08/06 09:37:58;;;;;;;;;;;33.20;65.50;;;;;;5090421;28;19958;-79
2022/08/06 09:40:24;;;;;;;;;;;33.30;65.20;;;;;;5089339;28;19920;-81
2022/08/06 09:42:50;;;;;;;;;;;33.30;65.20;;;;;;5089775;28;19918;-81
2022/08/06 09:45:17;;;;;;;;;;;33.70;65.60;;;;;;5090713;28;20011;-81
2022/08/06 09:47:46;;;;;;;;;;;34.20;65.70;;;;;;5091068;28;19937;-81
2022/08/06 09:50:12;;;;;;;;;;;33.90;65.10;;;;;;5090057;28;19919;-81
2022/08/06 09:52:37;;;;;;;;;;;32.90;65.10;;;;;;5090766;28;20372;-81
2022/08/06 09:55:03;;;;;;;;;;;32.20;65.40;;;;;;5072316;28;19978;-81
2022/08/06 09:57:49;;;;;;;;;;;31.90;65.90;;;;;;5090991;28;20280;-81
2022/08/06 10:00:29;;;;;;;;;;;31.40;65.90;;;;;;5091028;28;19912;-81
2022/08/06 10:02:59;;;;;;;;;;;31.10;66.90;;;;;;5090630;28;20316;-81
2022/08/06 10:05:25;;;;;;;;;;;31.40;67.10;;;;;;5089501;28;19918;-81
2022/08/06 10:08:06;;;;;;;;;;;31.80;66.90;;;;;;5090216;28;19934;-80
2022/08/06 10:10:46;;;;;;;;;;;32.30;67.00;;;;;;5088744;28;19912;-81
2022/08/06 10:13:13;;;;;;;;;;;32.90;66.20;;;;;;5090588;28;19978;-80
2022/08/06 10:15:38;;;;;;;;;;;32.40;65.00;;;;;;5089799;28;19919;-81
2022/08/06 10:18:04;;;;;;;;;;;31.50;64.90;;;;;;5087755;28;19916;-80
2022/08/06 10:20:30;;;;;;;;;;;30.70;65.20;;;;;;5071714;28;19969;-80
2022/08/06 10:22:59;;;;;;;;;;;29.80;65.50;;;;;;5088486;28;19961;-81
2022/08/06 10:25:25;;;;;;;;;;;29.40;66.30;;;;;;5087923;28;19990;-80
2022/08/06 10:27:53;;;;;;;;;;;29.30;66.40;;;;;;5071343;28;19923;-81
2022/08/06 10:30:20;;;;;;;;;;;29.20;66.30;;;;;;5088200;28;20374;-81
2022/08/06 10:32:45;;;;;;;;;;;29.00;66.20;;;;;;5090162;28;19908;-80
2022/08/06 10:35:11;;;;;;;;;;;29.20;66.60;;;;;;5088001;28;20030;-81
2022/08/06 10:37:39;;;;;;;;;;;29.40;66.40;;;;;;5089484;28;19908;-80
2022/08/06 10:40:05;;;;;;;;;;;29.50;66.30;;;;;;5089526;28;19927;-80
2022/08/06 10:42:30;;;;;;;;;;;29.80;66.50;;;;;;5088324;28;20009;-81
2022/08/06 10:44:57;;;;;;;;;;;30.10;66.30;;;;;;5089353;28;19916;-80
2022/08/06 10:47:23;;;;;;;;;;;30.10;65.90;;;;;;5087776;28;19923;-81
2022/08/06 10:49:49;;;;;;;;;;;30.20;66.30;;;;;;5088984;28;19922;-80
2022/08/06 10:52:15;;;;;;;;;;;30.30;66.40;;;;;;5088256;28;19908;-81
2022/08/06 10:54:40;;;;;;;;;;;30.60;66.60;;;;;;5070933;28;20306;-80
2022/08/06 10:57:06;;;;;;;;;;;30.80;66.30;;;;;;5091550;28;19920;-81
2022/08/06 10:59:32;;;;;;;;;;;31.10;66.40;;;;;;5070634;28;20268;-81
2022/08/06 11:02:00;;;;;;;;;;;31.30;66.20;;;;;;5089556;28;20314;-80
2022/08/06 11:04:45;;;;;;;;;;;31.50;66.00;;;;;;5089012;28;20386;-80
2022/08/06 11:07:19;;;;;;;;;;;31.50;65.90;;;;;;5089427;28;19912;-80
2022/08/06 11:09:57;;;;;;;;;;;31.40;65.70;;;;;;5089231;28;19908;-80
2022/08/06 11:12:29;;;;;;;;;;;31.20;65.60;;;;;;5087479;28;19912;-80
2022/08/06 11:14:55;;;;;;;;;;;30.90;65.50;;;;;;5087437;28;19908;-80
2022/08/06 11:17:21;;;;;;;;;;;30.50;65.60;;;;;;5087472;28;19918;-80
2022/08/06 11:19:47;;;;;;;;;;;30.10;65.80;;;;;;5088895;28;19929;-80
2022/08/06 11:22:32;;;;;;;;;;;30.00;66.20;;;;;;5087932;28;20413;-80
2022/08/06 11:24:57;;;;;;;;;;;29.90;66.20;;;;;;5088163;28;19912;-80
2022/08/06 11:27:42;;;;;;;;;;;29.90;66.40;;;;;;5087604;28;20489;-80
2022/08/06 11:30:10;;;;;;;;;;;30.10;66.30;;;;;;5087866;28;19912;-80
2022/08/06 11:32:50;;;;;;;;;;;29.80;65.50;;;;;;5088944;28;19912;-81
2022/08/06 11:35:34;;;;;;;;;;;29.30;65.30;;;;;;5092492;28;19934;-79
2022/08/06 11:38:00;;;;;;;;;;;28.90;65.40;;;;;;5091636;28;20005;-78
2022/08/06 11:40:25;;;;;;;;;;;28.50;65.40;;;;;;5093051;28;19930;-68
2022/08/06 11:42:51;;;;;;;;;;;28.10;65.40;;;;;;5088901;28;19912;-80
2022/08/06 11:45:17;;;;;;;;;;;27.80;65.60;;;;;;5087115;28;20356;-80
2022/08/06 11:48:14;;;;;;;;;;;27.30;65.20;;;;;;5070526;28;19917;-80
2022/08/06 11:50:39;;;;;;;;;;;26.90;65.40;;;;;;5079410;28;20368;-80
2022/08/06 11:53:05;;;;;;;;;;;26.50;65.60;;;;;;5087100;28;19912;-80
2022/08/06 11:55:30;;;;;;;;;;;26.20;65.70;;;;;;5087802;28;20375;-80
2022/08/06 11:58:20;;;;;;;;;;;25.90;65.80;;;;;;5086867;28;19912;-80
2022/08/06 12:00:59;;;;;;;;;;;25.70;65.80;;;;;;5088110;28;19912;-78
2022/08/06 12:03:38;;;;;;;;;;;25.70;65.90;;;;;;5087165;28;19928;-78
2022/08/06 12:06:18;;;;;;;;;;;25.60;65.80;;;;;;5087708;28;19913;-79
2022/08/06 12:09:03;;;;;;;;;;;25.60;65.70;;;;;;5086140;28;20279;-80
2022/08/06 12:11:33;;;;;;;;;;;25.60;65.70;;;;;;5086060;28;20287;-79
2022/08/06 12:13:59;;;;;;;;;;;25.50;65.40;;;;;;5087620;28;20018;-79
2022/08/06 12:16:29;;;;;;;;;;;25.40;65.50;;;;;;5086371;28;20012;-80
2022/08/06 12:18:54;;;;;;;;;;;25.40;65.70;;;;;;5085416;28;20294;-80
2022/08/06 12:21:21;;;;;;;;;;;25.70;65.90;;;;;;5087314;28;19942;-80
2022/08/06 12:23:48;;;;;;;;;;;26.30;66.30;;;;;;5087196;28;19916;-80
2022/08/06 12:26:15;;;;;;;;;;;26.90;66.00;;;;;;5085687;28;19934;-79
2022/08/06 12:28:41;;;;;;;;;;;27.20;65.60;;;;;;5085548;28;19920;-80
2022/08/06 12:31:07;;;;;;;;;;;27.20;65.00;;;;;;5087224;28;19912;-79
2022/08/06 12:33:40;;;;;;;;;;;27.20;65.00;;;;;;5087065;28;19908;-80
2022/08/06 12:36:06;;;;;;;;;;;27.00;64.80;;;;;;5085651;28;19908;-80
2022/08/06 12:38:32;;;;;;;;;;;26.70;64.90;;;;;;5085326;28;19916;-80
2022/08/06 12:40:59;;;;;;;;;;;26.50;65.10;;;;;;5085492;28;20353;-80
2022/08/06 12:43:25;;;;;;;;;;;26.40;65.30;;;;;;5069591;28;20364;-80
2022/08/06 12:45:58;;;;;;;;;;;26.50;65.50;;;;;;5086290;28;20286;-80
2022/08/06 12:48:24;;;;;;;;;;;26.60;65.60;;;;;;5093776;28;19919;-80
2022/08/06 12:50:50;;;;;;;;;;;26.70;65.50;;;;;;5094232;28;19912;-80
2022/08/06 12:53:17;;;;;;;;;;;26.70;65.40;;;;;;5092939;28;19919;-80
2022/08/06 12:55:54;;;;;;;;;;;26.60;65.20;;;;;;5093900;28;19937;-80
2022/08/06 12:58:21;;;;;;;;;;;26.40;64.80;;;;;;5092652;28;19915;-81
2022/08/06 13:00:49;;;;;;;;;;;26.10;65.00;;;;;;5093995;28;20043;-80
2022/08/06 13:03:16;;;;;;;;;;;25.90;65.00;;;;;;5092400;28;20275;-80
2022/08/06 13:05:43;;;;;;;;;;;25.70;65.10;;;;;;5093531;28;20010;-79
2022/08/06 13:08:09;;;;;;;;;;;25.60;65.30;;;;;;5092765;28;19909;-79
2022/08/06 13:10:34;;;;;;;;;;;25.50;65.20;;;;;;5094260;28;19908;-80
2022/08/06 13:13:01;;;;;;;;;;;25.60;65.70;;;;;;5093984;28;19916;-79
2022/08/06 13:15:28;;;;;;;;;;;25.90;65.90;;;;;;5092359;28;20399;-80
2022/08/06 13:18:07;;;;;;;;;;;26.10;65.70;;;;;;5093798;28;19950;-79
2022/08/06 13:20:40;;;;;;;;;;;26.20;65.40;;;;;;5093708;28;19919;-80
2022/08/06 13:23:06;;;;;;;;;;;26.40;65.30;;;;;;5093646;28;20000;-80
2022/08/06 13:25:50;;;;;;;;;;;26.30;65.00;;;;;;5093900;28;19916;-80
2022/08/06 13:28:17;;;;;;;;;;;26.20;65.00;;;;;;5092227;28;20586;-80
2022/08/06 13:30:43;;;;;;;;;;;26.00;64.90;;;;;;5093887;28;19919;-80
2022/08/06 13:33:16;;;;;;;;;;;25.80;64.70;;;;;;5092369;28;20336;-80
2022/08/06 13:35:42;;;;;;;;;;;25.70;64.80;;;;;;5092275;28;19922;-81
2022/08/06 13:38:11;;;;;;;;;;;25.60;65.00;;;;;;5093766;28;19974;-77
2022/08/06 13:40:43;;;;;;;;;;;25.50;65.60;;;;;;5093659;28;19924;-79
2022/08/06 13:43:10;;;;;;;;;;;25.60;65.40;;;;;;5093939;28;19977;-80
2022/08/06 13:45:35;;;;;;;;;;;25.90;65.60;;;;;;5075918;28;19919;-80
2022/08/06 13:48:03;;;;;;;;;;;26.20;65.70;;;;;;5092967;28;19991;-80
2022/08/06 13:50:29;;;;;;;;;;;26.60;65.70;;;;;;5092328;28;20050;-80
2022/08/06 13:52:54;;;;;;;;;;;27.00;65.50;;;;;;5092211;28;19946;-80
2022/08/06 13:55:24;;;;;;;;;;;27.20;65.10;;;;;;5093355;28;20186;-79
2022/08/06 13:57:49;;;;;;;;;;;27.20;65.00;;;;;;5092880;28;19908;-79
2022/08/06 14:00:15;;;;;;;;;;;27.30;65.10;;;;;;5089514;28;19916;-79
2022/08/06 14:02:41;;;;;;;;;;;27.30;65.00;;;;;;5091125;28;19927;-79
2022/08/06 14:05:07;;;;;;;;;;;27.10;64.80;;;;;;5090237;28;19948;-80
2022/08/06 14:07:32;;;;;;;;;;;26.90;64.80;;;;;;5072178;28;20318;-80
2022/08/06 14:09:58;;;;;;;;;;;26.60;64.80;;;;;;5088839;28;19919;-80
2022/08/06 14:12:23;;;;;;;;;;;26.50;65.00;;;;;;5090308;28;19963;-80
2022/08/06 14:14:49;;;;;;;;;;;26.30;64.90;;;;;;5090091;28;19913;-80
2022/08/06 14:17:15;;;;;;;;;;;26.00;64.80;;;;;;5072970;28;20194;-80
2022/08/06 14:19:41;;;;;;;;;;;25.90;65.00;;;;;;5089013;28;19940;-80
2022/08/06 14:22:07;;;;;;;;;;;25.80;65.00;;;;;;5088638;28;19918;-80
2022/08/06 14:24:33;;;;;;;;;;;25.70;65.00;;;;;;5089554;28;19914;-80
2022/08/06 14:26:59;;;;;;;;;;;25.80;65.20;;;;;;5090067;28;20012;-80